Time;durP1;ratioP1;P1;durP2;ratioP2;P2;SDS_P1;SDS_P2;PMS_P1;PMS_P2;Temp;Humidity;BMP_temperature;BMP_pressure;BME280_temperature;BME280_humidity;BME280_pressure;Samples;Min_cycle;Max_cycle;Signal;HPM_P1;HPM_P2
2021/12/04 00:00:53;;;;;;;16.77;14.98;;;;;;;3.25;95.27;99982.72;1988094;29;41785;-64
2021/12/04 00:02:02;;;;;;;18.92;14.98;;;;;;;3.24;95.05;99982.75;1993442;29;45421;-64
2021/12/04 00:03:04;;;;;;;17.52;15.10;;;;;;;3.24;94.47;99985.38;1993221;29;30235;-64
2021/12/04 00:04:06;;;;;;;17.70;15.32;;;;;;;3.23;95.19;99979.22;1993604;29;41185;-64
2021/12/04 00:05:08;;;;;;;18.48;15.50;;;;;;;3.26;95.31;99986.25;1992802;29;44149;-64
2021/12/04 00:06:22;;;;;;;18.92;16.02;;;;;;;3.25;95.13;99976.56;1985856;29;33865;-64
2021/12/04 00:07:24;;;;;;;21.42;16.08;;;;;;;3.24;95.32;99980.09;1987185;29;43854;-64
2021/12/04 00:08:28;;;;;;;17.52;15.10;;;;;;;3.27;95.39;99984.47;1993352;29;46612;-64
2021/12/04 00:09:30;;;;;;;18.13;16.13;;;;;;;3.26;95.37;99980.94;1993588;29;42712;-64
2021/12/04 00:10:32;;;;;;;19.60;16.48;;;;;;;3.27;95.36;99979.16;1993312;29;44119;-64
2021/12/04 00:11:37;;;;;;;19.75;16.27;;;;;;;3.25;95.31;99977.44;1993609;29;43485;-64
2021/12/04 00:12:39;;;;;;;18.30;16.33;;;;;;;3.24;95.37;99970.38;1992917;29;42866;-62
2021/12/04 00:13:41;;;;;;;19.33;16.23;;;;;;;3.25;95.19;99976.56;1993639;29;45091;-62
2021/12/04 00:14:45;;;;;;;23.15;17.17;;;;;;;3.24;95.20;99973.03;1985438;29;42785;-62
2021/12/04 00:15:46;;;;;;;19.92;16.90;;;;;;;3.25;95.41;99980.09;1985272;29;43616;-64
2021/12/04 00:16:48;;;;;;;21.88;17.40;;;;;;;3.25;95.33;99979.22;1993707;29;30655;-64
2021/12/04 00:17:50;;;;;;;20.58;17.63;;;;;;;3.25;95.12;99979.22;1993382;29;41969;-63
2021/12/04 00:18:54;;;;;;;21.88;17.85;;;;;;;3.24;95.42;99973.03;1993716;29;43490;-62
2021/12/04 00:19:56;;;;;;;21.27;17.80;;;;;;;3.24;95.38;99969.50;1993481;29;46644;-62
2021/12/04 00:20:58;;;;;;;21.38;18.00;;;;;;;3.24;95.75;99970.38;1993198;29;44284;-63
2021/12/04 00:22:00;;;;;;;23.92;18.48;;;;;;;3.25;95.25;99966.00;1994169;29;24073;-62
2021/12/04 00:23:02;;;;;;;23.77;18.80;;;;;;;3.25;95.09;99971.28;1985199;29;42216;-63
2021/12/04 00:24:04;;;;;;;22.85;18.80;;;;;;;3.26;95.12;99965.06;1985117;29;44091;-64
2021/12/04 00:25:08;;;;;;;25.35;19.90;;;;;;;3.27;95.18;99965.94;1994740;29;20180;-62
2021/12/04 00:26:10;;;;;;;23.27;19.38;;;;;;;3.25;95.29;99971.28;1993505;29;45199;-62
2021/12/04 00:27:11;;;;;;;23.10;19.30;;;;;;;3.25;95.14;99963.34;1993627;29;45379;-64
2021/12/04 00:28:13;;;;;;;23.75;19.80;;;;;;;3.27;95.11;99968.59;1994245;29;20039;-62
2021/12/04 00:29:15;;;;;;;27.20;20.95;;;;;;;3.26;95.08;99967.72;1993440;29;45217;-62
2021/12/04 00:30:17;;;;;;;23.15;18.80;;;;;;;3.27;94.88;99964.19;1993514;29;43930;-62
2021/12/04 00:31:19;;;;;;;22.65;19.23;;;;;;;3.29;95.03;99966.84;1995639;29;20090;-64
2021/12/04 00:32:32;;;;;;;24.70;19.08;;;;;;;3.28;94.83;99971.22;1993848;29;45704;-62
2021/12/04 00:33:37;;;;;;;23.23;19.20;;;;;;;3.29;94.62;99967.72;1992660;29;43748;-64
2021/12/04 00:34:43;;;;;;;26.88;20.13;;;;;;;3.29;94.92;99966.84;1993394;29;44304;-64
2021/12/04 00:35:53;;;;;;;24.02;19.70;;;;;;;3.29;94.87;99964.19;1993778;29;45941;-64
2021/12/04 00:49:07;;;;;;;24.77;19.85;;;;;;;3.28;94.78;99958.00;1993279;29;44286;-62
2021/12/04 00:49:48;;;;;;;27.38;19.80;;;;;;;3.28;94.88;99960.66;1993448;29;42143;-62
2021/12/04 00:50:49;;;;;;;25.48;20.38;;;;;;;3.29;94.95;99954.47;1994011;29;36848;-62
2021/12/04 00:51:54;;;;;;;28.60;21.55;;;;;;;3.29;94.72;99954.47;1993400;29;44925;-63
2021/12/04 00:52:56;;;;;;;27.35;20.13;;;;;;;3.29;95.04;99959.78;1993511;29;44354;-62
2021/12/04 00:54:01;;;;;;;26.05;21.38;;;;;;;3.28;95.01;99950.06;1993420;29;46344;-62
2021/12/04 00:55:05;;;;;;;26.05;20.77;;;;;;;3.29;95.01;99956.25;1993593;29;41587;-62
2021/12/04 00:56:07;;;;;;;29.02;21.13;;;;;;;3.27;95.01;99953.63;1985068;29;45438;-63
2021/12/04 00:57:09;;;;;;;26.00;21.30;;;;;;;3.28;94.96;99955.34;1985471;29;43927;-63
2021/12/04 00:58:11;;;;;;;29.02;21.80;;;;;;;3.27;95.11;99958.00;1993294;29;43889;-63
2021/12/04 00:59:13;;;;;;;24.27;19.73;;;;;;;3.28;94.98;99960.66;1993739;29;28352;-64
2021/12/04 01:00:16;;;;;;;24.48;19.98;;;;;;;3.28;95.10;99959.78;1985240;29;42465;-63
2021/12/04 01:01:20;;;;;;;27.10;20.35;;;;;;;3.27;94.95;99956.25;1987093;29;20847;-62
2021/12/04 01:02:23;;;;;;;25.63;19.95;;;;;;;3.28;94.86;99958.00;1994635;29;45277;-62
2021/12/04 01:03:25;;;;;;;27.70;20.95;;;;;;;3.28;94.88;99952.72;1977592;29;43448;-62
2021/12/04 01:04:27;;;;;;;26.60;20.02;;;;;;;3.27;94.96;99955.38;1978638;29;25232;-63
2021/12/04 01:05:28;;;;;;;27.02;21.20;;;;;;;3.25;95.07;99950.97;1992911;29;44839;-62
2021/12/04 01:06:30;;;;;;;27.73;20.73;;;;;;;3.27;95.04;99955.38;1985547;29;45654;-62
2021/12/04 01:07:33;;;;;;;25.65;20.48;;;;;;;3.25;95.14;99958.91;1986218;29;33025;-63
2021/12/04 01:08:38;;;;;;;26.88;21.50;;;;;;;3.29;95.12;99957.13;1985683;29;43875;-63
2021/12/04 01:09:41;;;;;;;26.05;20.55;;;;;;;3.27;95.12;99952.72;1986084;29;43720;-62
2021/12/04 01:10:44;;;;;;;29.27;21.13;;;;;;;3.27;95.01;99950.97;1985449;29;31419;-62
2021/12/04 01:11:49;;;;;;;23.95;19.52;;;;;;;3.26;95.03;99949.22;1978320;29;44099;-62
2021/12/04 01:12:50;;;;;;;27.25;20.27;;;;;;;3.26;95.07;99949.22;1985541;29;47622;-62
2021/12/04 01:13:52;;;;;;;27.90;21.48;;;;;;;3.27;95.33;99950.97;1993099;29;42336;-62
2021/12/04 01:14:55;;;;;;;25.25;18.98;;;;;;;3.29;95.01;99956.25;1993291;29;44517;-62
2021/12/04 01:15:56;;;;;;;25.98;19.98;;;;;;;3.26;94.87;99957.16;1993393;29;45761;-63
2021/12/04 01:16:59;;;;;;;27.73;19.88;;;;;;;3.27;94.86;99953.63;1993455;29;44024;-63
2021/12/04 01:18:03;;;;;;;34.47;23.98;;;;;;;3.28;94.93;99958.00;1984902;29;45330;-62
2021/12/04 01:19:05;;;;;;;27.55;19.98;;;;;;;3.27;95.08;99952.72;1986172;29;29328;-62
2021/12/04 01:20:08;;;;;;;27.08;20.58;;;;;;;3.27;94.97;99950.97;1993131;29;44092;-63
2021/12/04 01:21:10;;;;;;;28.17;20.13;;;;;;;3.26;95.17;99957.16;1993442;29;45327;-62
2021/12/04 01:22:12;;;;;;;29.58;21.10;;;;;;;3.26;95.20;99949.22;1993026;29;45186;-63
2021/12/04 01:23:16;;;;;;;26.42;20.10;;;;;;;3.26;95.18;99951.84;1992853;29;45055;-63
2021/12/04 01:24:20;;;;;;;26.55;19.83;;;;;;;3.27;95.16;99953.63;1993683;29;43633;-62
2021/12/04 01:25:22;;;;;;;27.48;20.95;;;;;;;3.27;95.10;99952.72;1993822;29;34966;-63
2021/12/04 01:26:24;;;;;;;25.80;20.20;;;;;;;3.27;95.38;99953.63;1993148;29;45312;-63
2021/12/04 01:27:28;;;;;;;29.15;20.67;;;;;;;3.26;95.07;99957.16;1993985;29;20080;-62
2021/12/04 01:28:29;;;;;;;25.83;19.88;;;;;;;3.27;95.35;99953.63;1993015;29;42125;-64
2021/12/04 01:29:31;;;;;;;29.30;22.02;;;;;;;3.27;95.32;99963.31;1993571;29;31851;-64
2021/12/04 01:30:34;;;;;;;29.23;20.70;;;;;;;3.26;95.33;99954.50;1992643;29;46645;-62
2021/12/04 01:31:35;;;;;;;27.92;20.55;;;;;;;3.27;95.17;99955.38;1993229;29;45384;-64
2021/12/04 01:32:37;;;;;;;26.35;20.20;;;;;;;3.27;95.27;99952.72;1994477;29;43668;-62
2021/12/04 01:33:39;;;;;;;27.20;19.98;;;;;;;3.28;95.15;99959.78;1992668;29;44098;-62
2021/12/04 01:34:41;;;;;;;27.10;21.13;;;;;;;3.26;95.28;99954.50;1985470;29;34534;-65
2021/12/04 01:35:43;;;;;;;29.33;20.42;;;;;;;3.26;95.01;99954.50;1985343;29;45578;-64
2021/12/04 01:36:45;;;;;;;28.23;20.02;;;;;;;3.26;95.29;99954.50;1993009;29;45711;-62
2021/12/04 01:37:46;;;;;;;31.00;22.15;;;;;;;3.25;94.92;99955.41;1993285;29;41225;-64
2021/12/04 01:38:48;;;;;;;31.83;20.75;;;;;;;3.26;95.43;99959.78;1992960;29;45703;-62
2021/12/04 01:39:50;;;;;;;28.77;21.60;;;;;;;3.25;95.50;99952.75;1993290;29;44939;-64
2021/12/04 01:40:52;;;;;;;31.92;21.27;;;;;;;3.24;95.35;99946.56;1985076;29;41862;-64
2021/12/04 01:41:54;;;;;;;28.38;21.30;;;;;;;3.25;95.30;99956.28;1985462;29;46424;-64
2021/12/04 01:42:58;;;;;;;25.63;20.20;;;;;;;3.23;95.36;99957.16;1993143;29;43787;-64
2021/12/04 01:44:04;;;;;;;27.50;19.45;;;;;;;3.26;95.58;99959.78;1993293;29;32729;-64
2021/12/04 01:45:07;;;;;;;33.92;23.08;;;;;;;3.24;95.42;99954.50;1985040;29;44721;-64
2021/12/04 01:46:09;;;;;;;28.08;21.50;;;;;;;3.24;95.48;99954.50;1986041;29;45164;-64
2021/12/04 01:47:14;;;;;;;29.15;21.17;;;;;;;3.22;95.32;99950.13;1993956;29;20118;-64
2021/12/04 01:48:16;;;;;;;31.33;21.30;;;;;;;3.23;95.40;99952.78;1992933;29;45970;-64
2021/12/04 01:49:17;;;;;;;34.78;22.88;;;;;;;3.23;95.30;99947.47;1992571;29;45296;-63
2021/12/04 01:50:19;;;;;;;30.92;22.00;;;;;;;3.23;95.37;99951.88;1991994;29;44638;-64
2021/12/04 01:51:22;;;;;;;28.00;20.67;;;;;;;3.25;95.34;99955.41;1992650;29;43185;-63
2021/12/04 01:52:23;;;;;;;29.77;20.25;;;;;;;3.25;95.51;99958.06;1993511;29;32520;-64
2021/12/04 01:53:30;;;;;;;28.58;21.48;;;;;;;3.23;95.43;99946.56;1993463;29;44318;-64
2021/12/04 01:54:32;;;;;;;29.77;21.52;;;;;;;3.23;95.39;99954.50;1992939;29;45411;-64
2021/12/04 01:55:36;;;;;;;31.55;22.98;;;;;;;3.22;95.76;99951.00;1993208;29;38078;-64
2021/12/04 01:56:40;;;;;;;31.23;22.13;;;;;;;3.21;95.71;99943.06;1984726;29;43493;-64
2021/12/04 01:57:42;;;;;;;33.83;22.63;;;;;;;3.21;95.27;99943.06;1985333;29;42985;-64
2021/12/04 01:58:44;;;;;;;31.25;22.60;;;;;;;3.21;95.51;99943.97;1984769;29;46212;-64
2021/12/04 01:59:45;;;;;;;32.03;22.77;;;;;;;3.21;95.34;99943.97;1985965;29;20940;-64
2021/12/04 02:00:48;;;;;;;31.77;22.83;;;;;;;3.21;95.29;99943.06;1992890;29;44257;-64
2021/12/04 02:01:50;;;;;;;33.45;22.60;;;;;;;3.21;95.15;99948.38;1992564;29;44136;-64
2021/12/04 02:02:52;;;;;;;36.58;23.48;;;;;;;3.20;95.49;99949.28;1992657;29;45947;-64
2021/12/04 02:03:53;;;;;;;29.65;21.70;;;;;;;3.20;95.87;99941.34;1993172;29;33884;-64
2021/12/04 02:04:55;;;;;;;33.58;23.02;;;;;;;3.21;95.40;99948.38;1984819;29;45303;-64
2021/12/04 02:05:57;;;;;;;28.50;21.67;;;;;;;3.21;95.54;99948.38;1984763;29;46315;-64
2021/12/04 02:07:03;;;;;;;34.80;22.70;;;;;;;3.22;95.28;99950.13;1994207;29;44490;-64
2021/12/04 02:08:07;;;;;;;29.50;22.15;;;;;;;3.21;95.70;99943.06;1993010;29;43065;-64
2021/12/04 02:09:09;;;;;;;32.58;22.75;;;;;;;3.20;95.24;99950.16;1992935;29;40449;-64
2021/12/04 02:10:10;;;;;;;33.05;21.42;;;;;;;3.20;95.33;99947.50;1992711;29;42579;-64
2021/12/04 02:11:12;;;;;;;31.88;21.42;;;;;;;3.22;95.46;99947.50;1993947;29;34640;-64
2021/12/04 02:12:14;;;;;;;30.05;22.00;;;;;;;3.22;95.18;99945.72;1984591;29;44652;-64
2021/12/04 02:13:17;;;;;;;31.58;21.95;;;;;;;3.21;95.15;99943.97;1985183;29;43325;-64
2021/12/04 02:14:19;;;;;;;33.00;22.70;;;;;;;3.21;95.37;99935.13;1992322;29;46782;-64
2021/12/04 02:15:21;;;;;;;28.77;20.30;;;;;;;3.23;95.06;99941.28;1992942;29;42627;-64
2021/12/04 02:16:23;;;;;;;31.05;20.77;;;;;;;3.24;95.47;99941.28;1992431;29;46991;-63
2021/12/04 02:17:25;;;;;;;31.50;21.45;;;;;;;3.21;95.39;99938.69;1992841;29;34020;-64
2021/12/04 02:18:26;;;;;;;35.92;22.38;;;;;;;3.23;95.27;99938.66;1984630;29;43260;-64
2021/12/04 02:19:29;;;;;;;33.05;21.77;;;;;;;3.22;95.42;99934.25;1984924;29;45116;-64
2021/12/04 02:20:33;;;;;;;31.63;22.05;;;;;;;3.20;95.08;99931.63;1992946;29;42412;-64
2021/12/04 02:21:34;;;;;;;33.55;22.35;;;;;;;3.22;95.15;99928.97;1992546;29;44079;-64
2021/12/04 02:22:36;;;;;;;29.85;21.38;;;;;;;3.21;94.96;99930.75;1992963;29;45864;-64
2021/12/04 02:23:41;;;;;;;30.60;22.15;;;;;;;3.22;95.13;99928.97;1993987;29;44103;-63
2021/12/04 02:24:43;;;;;;;28.13;20.75;;;;;;;3.22;95.06;99936.91;1992555;29;45022;-64
2021/12/04 02:25:45;;;;;;;31.15;21.00;;;;;;;3.21;95.15;99935.13;1992817;29;36076;-64
2021/12/04 02:26:49;;;;;;;31.08;21.73;;;;;;;3.20;95.22;99930.75;1992753;29;44315;-64
2021/12/04 02:27:51;;;;;;;31.63;21.05;;;;;;;3.22;94.98;99934.25;1993065;29;46125;-63
2021/12/04 02:28:55;;;;;;;33.67;22.67;;;;;;;3.20;95.02;99931.63;1984841;29;45437;-64
2021/12/04 02:29:56;;;;;;;29.73;20.20;;;;;;;3.22;94.87;99928.97;1984881;29;46593;-64
2021/12/04 02:30:58;;;;;;;29.85;21.50;;;;;;;3.24;95.03;99937.78;1993318;29;43456;-64
2021/12/04 02:32:02;;;;;;;31.10;21.23;;;;;;;3.23;95.16;99928.06;1993203;29;20055;-63
2021/12/04 02:33:11;;;;;;;32.33;21.60;;;;;;;3.22;94.88;99924.56;1992102;29;44461;-64
2021/12/04 02:34:30;;;;;;;31.40;21.50;;;;;;;3.22;95.03;99921.91;1984756;29;43907;-64
2021/12/04 02:35:32;;;;;;;25.95;19.15;;;;;;;3.21;94.88;99922.81;1988644;29;34819;-64
2021/12/04 02:36:35;;;;;;;30.20;20.65;;;;;;;3.21;94.86;99925.47;1992743;29;44955;-64
2021/12/04 02:37:39;;;;;;;24.10;18.92;;;;;;;3.23;94.95;99921.03;1985510;29;45502;-64
2021/12/04 02:38:41;;;;;;;25.40;20.27;;;;;;;3.22;94.81;99921.03;1985640;29;36404;-64
2021/12/04 02:39:44;;;;;;;22.40;17.15;;;;;;;3.23;94.87;99922.78;1993013;29;42197;-64
2021/12/04 02:40:46;;;;;;;26.98;20.42;;;;;;;3.22;94.95;99918.41;1992749;29;44094;-64
2021/12/04 02:41:48;;;;;;;27.40;19.92;;;;;;;3.22;94.82;99921.03;1993061;29;44734;-64
2021/12/04 02:42:50;;;;;;;28.92;20.13;;;;;;;3.21;94.88;99921.91;1992595;29;45508;-64
2021/12/04 02:43:52;;;;;;;30.90;20.67;;;;;;;3.21;95.01;99916.63;1985382;29;29076;-64
2021/12/04 02:44:54;;;;;;;29.83;20.92;;;;;;;3.20;95.24;99909.59;1985069;29;43874;-64
2021/12/04 02:45:56;;;;;;;26.73;19.83;;;;;;;3.21;95.05;99916.63;1992691;29;43256;-64
2021/12/04 02:46:57;;;;;;;29.77;19.25;;;;;;;3.18;94.89;99911.38;1993296;29;33934;-64
2021/12/04 02:47:59;;;;;;;28.40;19.52;;;;;;;3.19;94.83;99905.19;1984737;29;43853;-64
2021/12/04 02:49:04;;;;;;;24.95;18.33;;;;;;;3.21;94.90;99900.75;1985056;29;46219;-64
2021/12/04 02:50:10;;;;;;;28.38;19.85;;;;;;;3.19;94.90;99900.75;1993406;29;25236;-63
2021/12/04 02:51:15;;;;;;;26.85;19.77;;;;;;;3.18;94.84;99901.69;1986211;29;44443;-64
2021/12/04 02:52:17;;;;;;;25.98;19.25;;;;;;;3.17;95.14;99899.03;1978388;29;44411;-64
2021/12/04 02:53:21;;;;;;;26.85;19.13;;;;;;;3.18;94.99;99899.03;1986618;29;20128;-64
2021/12/04 02:54:23;;;;;;;26.33;20.15;;;;;;;3.18;95.04;99892.88;1995060;29;45543;-64
2021/12/04 02:55:25;;;;;;;25.38;18.98;;;;;;;3.18;94.97;99898.16;1993013;29;46015;-64
2021/12/04 02:56:29;;;;;;;28.25;20.02;;;;;;;3.18;95.20;99890.22;1992118;29;34790;-64
2021/12/04 02:57:37;;;;;;;26.63;19.00;;;;;;;3.18;94.75;99887.59;1995016;29;20054;-64
2021/12/04 02:58:39;;;;;;;28.75;19.80;;;;;;;3.18;94.94;99896.38;1986188;29;42212;-64
2021/12/04 02:59:43;;;;;;;28.73;19.58;;;;;;;3.17;95.05;99884.03;1986839;29;45648;-64
2021/12/04 03:00:50;;;;;;;28.85;19.42;;;;;;;3.16;95.16;99890.25;1994280;29;43902;-64
2021/12/04 03:01:54;;;;;;;25.60;18.75;;;;;;;3.15;94.99;99885.81;1994829;29;31634;-64
2021/12/04 03:02:57;;;;;;;27.77;19.27;;;;;;;3.16;94.86;99887.59;1993912;29;46773;-65
2021/12/04 03:04:10;;;;;;;25.58;18.95;;;;;;;3.16;95.22;99882.31;1993934;29;42394;-64
2021/12/04 03:05:13;;;;;;;26.58;19.38;;;;;;;3.16;94.93;99879.66;1986617;29;28837;-63
2021/12/04 03:06:16;;;;;;;25.65;18.65;;;;;;;3.16;94.98;99877.00;1986482;29;44667;-64
2021/12/04 03:07:19;;;;;;;25.92;18.63;;;;;;;3.14;95.03;99881.44;1993897;29;44123;-65
2021/12/04 03:08:25;;;;;;;26.55;19.70;;;;;;;3.15;94.89;99875.25;1993801;29;43657;-65
2021/12/04 03:09:28;;;;;;;25.70;18.75;;;;;;;3.15;95.11;99874.38;1994236;29;43876;-64
2021/12/04 03:10:29;;;;;;;25.67;18.58;;;;;;;3.16;95.17;99876.13;1985843;29;45696;-64
2021/12/04 03:11:31;;;;;;;27.40;19.52;;;;;;;3.17;95.26;99877.88;1986054;29;44703;-62
2021/12/04 03:12:37;;;;;;;23.88;17.88;;;;;;;3.17;95.16;99877.88;1994650;29;20060;-62
2021/12/04 03:13:38;;;;;;;28.42;18.80;;;;;;;3.17;95.10;99883.16;1994022;29;45144;-65
2021/12/04 03:14:40;;;;;;;23.52;18.42;;;;;;;3.17;95.17;99888.47;1993998;29;43413;-62
2021/12/04 03:15:44;;;;;;;29.95;19.75;;;;;;;3.18;95.12;99890.22;1994563;29;45561;-64
2021/12/04 03:16:46;;;;;;;26.58;18.80;;;;;;;3.17;95.00;99886.69;1993989;29;45247;-64
2021/12/04 03:17:50;;;;;;;27.55;19.00;;;;;;;3.18;95.03;99887.59;1994157;29;41484;-64
2021/12/04 03:18:51;;;;;;;26.63;19.83;;;;;;;3.18;94.92;99885.81;1993677;29;44099;-64
2021/12/04 03:19:53;;;;;;;24.15;18.55;;;;;;;3.18;95.20;99890.22;1993949;29;45762;-64
2021/12/04 03:20:58;;;;;;;27.52;19.25;;;;;;;3.18;95.04;99888.44;1994133;29;43914;-64
2021/12/04 03:22:02;;;;;;;25.73;18.38;;;;;;;3.17;94.88;99872.59;1994037;29;45327;-64
2021/12/04 03:23:04;;;;;;;24.85;18.70;;;;;;;3.17;95.39;99878.75;1986273;29;24850;-64
2021/12/04 03:24:08;;;;;;;24.85;18.25;;;;;;;3.17;95.25;99872.59;1985974;29;45360;-64
2021/12/04 03:25:10;;;;;;;26.60;18.42;;;;;;;3.15;94.89;99864.66;1986525;29;44727;-64
2021/12/04 03:26:14;;;;;;;25.38;18.85;;;;;;;3.15;94.79;99863.81;1986341;29;45604;-64
2021/12/04 03:27:19;;;;;;;24.88;18.55;;;;;;;3.16;94.96;99866.44;1994553;29;20051;-64
2021/12/04 03:28:21;;;;;;;26.48;18.40;;;;;;;3.17;94.73;99859.38;1994165;29;39920;-64
2021/12/04 03:29:27;;;;;;;25.13;18.13;;;;;;;3.18;95.05;99858.50;1994140;29;45209;-64
2021/12/04 03:30:42;;;;;;;27.23;17.77;;;;;;;3.17;94.91;99859.38;1994441;29;43476;-61
2021/12/04 03:35:13;;;;;;;26.35;18.10;;;;;;;3.18;94.89;99863.78;1995089;29;45452;-64
2021/12/04 03:41:51;;;;;;;24.95;17.33;;;;;;;3.16;94.88;99844.38;1993807;29;45682;-63
2021/12/04 03:42:53;;;;;;;22.17;17.05;;;;;;;3.16;94.69;99850.56;1993787;29;46179;-64
2021/12/04 03:43:56;;;;;;;22.13;17.75;;;;;;;3.18;94.71;99850.56;1994946;29;20131;-63
2021/12/04 03:44:57;;;;;;;21.63;16.70;;;;;;;3.17;94.61;99852.31;1993715;29;44315;-64
2021/12/04 03:46:02;;;;;;;24.13;17.45;;;;;;;3.15;94.69;99848.81;1993573;29;46161;-64
2021/12/04 03:47:04;;;;;;;24.70;17.92;;;;;;;3.16;94.73;99852.31;1985801;29;39064;-64
2021/12/04 03:48:14;;;;;;;23.83;17.67;;;;;;;3.18;94.74;99847.91;1985631;29;46708;-65
2021/12/04 03:49:15;;;;;;;23.38;16.73;;;;;;;3.17;94.57;99848.78;1978515;29;42461;-64
2021/12/04 03:50:17;;;;;;;26.20;17.98;;;;;;;3.15;94.68;99848.81;1980158;29;45695;-64
2021/12/04 03:51:21;;;;;;;24.23;17.27;;;;;;;3.18;94.49;99853.19;1985494;29;46040;-64
2021/12/04 03:52:23;;;;;;;24.30;18.13;;;;;;;3.16;94.64;99847.03;1986138;29;36016;-62
2021/12/04 03:53:26;;;;;;;23.35;17.60;;;;;;;3.17;94.66;99849.66;1994099;29;20177;-64
2021/12/04 03:54:29;;;;;;;23.90;18.73;;;;;;;3.17;94.68;99846.16;1993175;29;43544;-64
2021/12/04 03:55:31;;;;;;;25.08;17.95;;;;;;;3.17;94.68;99846.16;1993429;29;45363;-64
2021/12/04 03:56:35;;;;;;;23.00;18.80;;;;;;;3.18;94.99;99842.63;1994144;29;30526;-64
2021/12/04 03:57:46;;;;;;;26.20;18.33;;;;;;;3.18;94.67;99850.56;1993516;29;45130;-64
2021/12/04 03:58:48;;;;;;;23.70;18.05;;;;;;;3.17;94.69;99848.78;1993541;29;46178;-64
2021/12/04 03:59:50;;;;;;;23.83;18.27;;;;;;;3.16;94.72;99852.31;1993647;29;43707;-63
2021/12/04 04:00:52;;;;;;;26.63;19.30;;;;;;;3.15;94.52;99845.28;1993698;29;45299;-64
2021/12/04 04:01:54;;;;;;;24.90;18.58;;;;;;;3.16;94.70;99849.66;1991367;29;34991;-64
2021/12/04 04:02:58;;;;;;;24.55;18.77;;;;;;;3.15;94.71;99846.16;1993619;29;43942;-64
2021/12/04 04:03:59;;;;;;;25.20;18.42;;;;;;;3.16;94.74;99854.97;1994706;29;45647;-65
2021/12/04 04:05:01;;;;;;;23.33;18.10;;;;;;;3.16;94.68;99847.03;1993128;29;46144;-64
2021/12/04 04:06:03;;;;;;;24.67;18.55;;;;;;;3.16;94.63;99847.03;1993579;29;45451;-64
2021/12/04 04:07:07;;;;;;;28.33;19.20;;;;;;;3.17;94.73;99854.06;1993429;29;46466;-64
2021/12/04 04:08:11;;;;;;;24.73;17.67;;;;;;;3.18;94.65;99845.25;1993739;29;29096;-64
2021/12/04 04:09:13;;;;;;;29.40;19.92;;;;;;;3.17;94.71;99847.00;1993376;29;45699;-64
2021/12/04 04:10:15;;;;;;;27.15;20.13;;;;;;;3.17;94.79;99846.16;1993297;29;45469;-64
2021/12/04 04:11:17;;;;;;;25.98;19.15;;;;;;;3.16;94.65;99837.34;1994192;29;37572;-64
2021/12/04 04:12:19;;;;;;;25.90;19.58;;;;;;;3.16;94.60;99840.00;1993236;29;45158;-63
2021/12/04 04:13:21;;;;;;;25.88;19.45;;;;;;;3.16;94.55;99840.00;1993918;29;30782;-64
2021/12/04 04:14:24;;;;;;;27.35;20.27;;;;;;;3.16;94.40;99833.78;1993759;29;43433;-64
2021/12/04 04:15:26;;;;;;;25.83;20.00;;;;;;;3.16;94.74;99836.44;1985944;29;44789;-64
2021/12/04 04:16:28;;;;;;;29.20;19.67;;;;;;;3.16;94.61;99826.75;1987015;29;20047;-64
2021/12/04 04:17:32;;;;;;;25.92;20.10;;;;;;;3.16;94.85;99825.88;1993521;29;45506;-64
2021/12/04 04:18:35;;;;;;;26.45;20.52;;;;;;;3.16;94.38;99829.41;1994297;29;20142;-64
2021/12/04 04:19:39;;;;;;;27.10;20.88;;;;;;;3.16;94.54;99824.13;1985511;29;45034;-64
2021/12/04 04:20:41;;;;;;;27.33;20.60;;;;;;;3.16;94.45;99818.81;1986101;29;44789;-64
2021/12/04 04:21:42;;;;;;;29.02;20.48;;;;;;;3.17;94.36;99819.69;1993582;29;45444;-64
2021/12/04 04:22:46;;;;;;;27.92;20.85;;;;;;;3.15;94.57;99817.06;1993731;29;27495;-64
2021/12/04 04:23:48;;;;;;;27.02;20.05;;;;;;;3.16;94.62;99816.19;1977870;29;43151;-64
2021/12/04 04:24:49;;;;;;;28.55;21.25;;;;;;;3.16;94.31;99824.13;1978382;29;45472;-64
2021/12/04 04:25:51;;;;;;;29.38;20.80;;;;;;;3.17;94.42;99825.84;1977881;29;44057;-64
2021/12/04 04:26:54;;;;;;;25.58;20.33;;;;;;;3.17;94.70;99819.69;1986362;29;42235;-64
2021/12/04 04:27:56;;;;;;;29.65;21.38;;;;;;;3.16;94.60;99820.56;1985198;29;45422;-64
2021/12/04 04:28:57;;;;;;;23.90;18.55;;;;;;;3.18;94.54;99821.47;1985673;29;46061;-64
2021/12/04 04:29:59;;;;;;;27.83;20.75;;;;;;;3.16;94.51;99816.19;1986052;29;45481;-64
2021/12/04 04:31:01;;;;;;;26.02;20.42;;;;;;;3.16;94.54;99818.81;1987353;29;45223;-64
2021/12/04 04:32:03;;;;;;;25.77;19.92;;;;;;;3.18;94.36;99818.81;1985250;29;38366;-64
2021/12/04 04:33:06;;;;;;;26.70;20.48;;;;;;;3.17;94.42;99811.75;1986363;29;31363;-64
2021/12/04 04:34:10;;;;;;;29.17;21.67;;;;;;;3.16;94.15;99821.47;1987841;29;20124;-63
2021/12/04 04:35:16;;;;;;;28.75;21.02;;;;;;;3.16;94.49;99824.13;1986360;29;43891;-64
2021/12/04 04:37:35;;;;;;;24.58;18.63;;;;;;;3.17;94.44;99819.69;1986253;29;43846;-64
2021/12/04 04:38:50;;;;;;;26.55;19.52;;;;;;;3.16;94.62;99828.50;1986974;29;20047;-64
2021/12/04 05:14:53;;;;;;;29.83;21.05;;;;;;;3.24;94.76;99843.41;1986584;29;20047;-64
2021/12/04 05:21:12;;;;;;;34.30;21.10;;;;;;;3.25;94.50;99844.31;1986613;29;20927;-64
2021/12/04 21:49:51;;;;;;;62.30;25.42;;;;;;;-0.45;98.27;99627.31;1992629;29;43831;-67
2021/12/04 21:50:53;;;;;;;68.75;26.33;;;;;;;-0.47;98.62;99621.16;1992925;29;29970;-66
2021/12/04 21:51:56;;;;;;;75.55;29.45;;;;;;;-0.48;98.20;99622.06;1993169;29;43446;-67
2021/12/04 21:52:58;;;;;;;62.88;28.30;;;;;;;-0.48;99.14;99624.69;1993097;29;45516;-66
2021/12/04 21:53:59;;;;;;;65.18;27.23;;;;;;;-0.47;98.03;99629.03;1992744;29;46554;-66
2021/12/04 21:55:18;;;;;;;66.75;28.48;;;;;;;-0.46;98.05;99627.31;1993121;29;42791;-67
2021/12/04 22:09:39;;;;;;;63.40;26.50;;;;;;;-0.46;98.20;99628.19;1995835;29;44299;-66
2021/12/04 22:10:51;;;;;;;72.10;29.52;;;;;;;-0.46;98.33;99633.44;1998837;29;44688;-66
2021/12/04 22:12:03;;;;;;;73.07;31.20;;;;;;;-0.47;98.77;99631.66;1995623;29;44115;-67
2021/12/04 22:13:13;;;;;;;74.20;31.70;;;;;;;-0.48;98.85;99632.56;1995092;29;45221;-66
2021/12/04 22:14:26;;;;;;;74.55;32.33;;;;;;;-0.47;99.24;99642.19;1994899;29;42471;-65
2021/12/04 22:26:24;;;;;;;68.97;28.55;;;;;;;-0.44;98.77;99647.47;1995536;29;45462;-66
2021/12/04 22:58:24;;;;;;;60.88;24.85;;;;;;;-0.39;98.84;99644.84;1987619;29;45730;-66
2021/12/04 22:59:26;;;;;;;73.97;29.05;;;;;;;-0.37;98.32;99653.59;1988010;29;45737;-66
2021/12/04 23:00:54;;;;;;;74.85;28.10;;;;;;;-0.36;98.95;99652.72;1987689;29;46328;-66
2021/12/04 23:02:02;;;;;;;62.35;25.65;;;;;;;-0.36;98.75;99651.84;1987032;29;42707;-65
2021/12/04 23:03:31;;;;;;;66.55;25.25;;;;;;;-0.36;99.07;99643.94;1987486;29;44400;-65
2021/12/04 23:04:46;;;;;;;89.60;27.45;;;;;;;-0.36;98.40;99646.59;1988264;29;32839;-65
2021/12/04 23:11:52;;;;;;;69.22;25.70;;;;;;;-0.35;98.58;99669.38;1975257;29;47267;-65
2021/12/04 23:13:06;;;;;;;64.25;25.63;;;;;;;-0.34;98.35;99673.75;1995248;29;38551;-65
2021/12/04 23:14:12;;;;;;;74.30;26.67;;;;;;;-0.33;98.63;99667.63;1993582;29;30312;-64
2021/12/04 23:15:22;;;;;;;82.05;27.73;;;;;;;-0.34;98.82;99664.13;1993462;29;45666;-65
2021/12/04 23:32:40;;;;;;;65.30;26.23;;;;;;;-0.33;98.48;99665.00;1993943;29;41693;-63
2021/12/04 23:35:17;;;;;;;83.53;30.88;;;;;;;-0.29;98.33;99661.50;1994069;29;30633;-64
2021/12/04 23:36:26;;;;;;;85.25;30.50;;;;;;;-0.32;98.85;99667.63;1993606;29;44085;-64
